createdAt,value
2022-10-16T00:02:17.464Z,32.80
2022-10-16T00:04:43.936Z,32.38
2022-10-16T00:07:10.263Z,30.33
2022-10-16T00:09:36.616Z,31.13
2022-10-16T00:12:04.820Z,31.85
2022-10-16T00:14:31.150Z,33.40
2022-10-16T00:16:57.445Z,31.35
2022-10-16T00:19:23.774Z,32.28
2022-10-16T00:21:50.162Z,32.50
2022-10-16T00:24:16.597Z,32.58
2022-10-16T00:26:42.964Z,33.08
2022-10-16T00:29:09.675Z,34.38
2022-10-16T00:31:36.473Z,33.78
2022-10-16T00:34:03.714Z,30.60
2022-10-16T00:36:30.191Z,33.42
2022-10-16T00:41:28.192Z,31.55
2022-10-16T00:43:57.616Z,30.88
2022-10-16T00:46:29.136Z,31.60
2022-10-16T00:49:01.330Z,32.60
2022-10-16T00:51:33.396Z,31.73
2022-10-16T00:54:00.858Z,31.70
2022-10-16T00:56:27.350Z,31.17
2022-10-16T00:58:53.901Z,32.40
2022-10-16T01:01:20.298Z,31.58
2022-10-16T01:03:46.675Z,32.40
2022-10-16T01:08:57.930Z,31.20
2022-10-16T01:11:49.014Z,31.63
2022-10-16T01:14:24.978Z,32.88
2022-10-16T01:17:07.370Z,34.38
2022-10-16T01:19:45.927Z,31.98
2022-10-16T01:22:14.053Z,32.33
2022-10-16T01:24:45.584Z,33.70
2022-10-16T01:27:29.857Z,32.05
2022-10-16T01:30:14.803Z,31.35
2022-10-16T01:35:30.571Z,33.83
2022-10-16T01:38:16.267Z,34.05
2022-10-16T01:40:47.095Z,32.45
2022-10-16T01:43:17.909Z,32.63
2022-10-16T01:45:46.793Z,33.00
2022-10-16T01:48:17.342Z,34.92
2022-10-16T01:50:49.676Z,32.33
2022-10-16T01:53:17.843Z,30.38
2022-10-16T01:55:48.567Z,31.08
2022-10-16T01:58:15.426Z,30.65
2022-10-16T02:00:45.219Z,33.60
2022-10-16T02:03:15.308Z,32.53
2022-10-16T02:05:47.397Z,31.00
2022-10-16T02:08:14.919Z,30.45
2022-10-16T02:10:41.777Z,31.10
2022-10-16T02:13:13.947Z,32.10
2022-10-16T02:15:40.413Z,32.20
2022-10-16T02:18:08.371Z,33.35
2022-10-16T02:20:49.759Z,34.80
2022-10-16T02:23:24.980Z,32.75
2022-10-16T02:25:53.486Z,31.90
2022-10-16T02:28:33.537Z,32.95
2022-10-16T02:31:04.234Z,31.80
2022-10-16T02:33:32.654Z,33.00
2022-10-16T02:35:59.673Z,31.60
2022-10-16T02:38:26.876Z,32.58
2022-10-16T02:40:53.420Z,32.92
2022-10-16T02:43:20.262Z,32.90
2022-10-16T02:45:46.767Z,31.70
2022-10-16T02:48:13.114Z,32.20
2022-10-16T02:50:39.434Z,34.53
2022-10-16T02:53:05.862Z,32.17
2022-10-16T02:55:32.388Z,33.72
2022-10-16T02:57:58.793Z,34.83
2022-10-16T03:00:25.121Z,32.95
2022-10-16T03:02:51.454Z,32.72
2022-10-16T03:05:18.354Z,33.05
2022-10-16T03:07:44.674Z,31.73
2022-10-16T03:10:10.976Z,33.63
2022-10-16T03:12:37.409Z,32.25
2022-10-16T03:15:04.717Z,34.15
2022-10-16T03:17:32.619Z,32.03
2022-10-16T03:19:58.947Z,34.90
2022-10-16T03:22:25.302Z,34.58
2022-10-16T03:24:51.674Z,32.22
2022-10-16T03:27:18.226Z,34.13
2022-10-16T03:29:44.564Z,35.03
2022-10-16T03:32:10.882Z,34.53
2022-10-16T03:34:37.206Z,34.65
2022-10-16T03:37:03.532Z,36.58
2022-10-16T03:39:29.872Z,35.60
2022-10-16T03:41:56.192Z,34.22
2022-10-16T03:44:22.814Z,34.50
2022-10-16T03:46:49.127Z,34.15
2022-10-16T03:49:15.455Z,34.28
2022-10-16T03:51:41.789Z,34.38
2022-10-16T03:54:08.149Z,36.47
2022-10-16T03:56:34.545Z,32.90
2022-10-16T03:59:00.883Z,33.38
2022-10-16T04:01:27.323Z,32.65
2022-10-16T04:03:53.717Z,32.97
2022-10-16T04:06:20.039Z,31.98
2022-10-16T04:08:46.415Z,32.42
2022-10-16T04:11:12.918Z,33.05
2022-10-16T04:13:39.346Z,31.75
2022-10-16T04:16:05.885Z,32.28
2022-10-16T04:18:32.247Z,33.47
2022-10-16T04:21:03.990Z,31.95
2022-10-16T04:23:30.428Z,33.47
2022-10-16T04:25:56.804Z,31.30
2022-10-16T04:28:23.219Z,33.65
2022-10-16T04:30:49.661Z,31.85
2022-10-16T04:33:16.026Z,29.67
2022-10-16T04:35:42.362Z,31.65
2022-10-16T04:38:09.388Z,33.13
2022-10-16T04:40:37.482Z,33.50
2022-10-16T04:43:05.088Z,33.05
2022-10-16T04:45:31.547Z,31.40
2022-10-16T04:47:59.206Z,33.40
2022-10-16T04:50:25.650Z,30.10
2022-10-16T04:52:51.945Z,33.88
2022-10-16T04:55:18.332Z,28.63
2022-10-16T04:57:44.649Z,32.58
2022-10-16T05:00:11.459Z,32.85
2022-10-16T05:02:37.806Z,30.25
2022-10-16T05:05:04.585Z,31.70
2022-10-16T05:07:30.891Z,30.83
2022-10-16T05:09:57.214Z,29.52
2022-10-16T05:12:23.559Z,28.80
2022-10-16T05:14:49.910Z,30.67
2022-10-16T05:17:16.232Z,30.55
2022-10-16T05:19:42.554Z,29.27
2022-10-16T05:22:08.904Z,29.27
2022-10-16T05:24:35.784Z,29.48
2022-10-16T05:27:02.076Z,30.70
2022-10-16T05:29:28.430Z,29.27
2022-10-16T05:31:54.752Z,30.60
2022-10-16T05:34:21.766Z,30.30
2022-10-16T05:36:48.219Z,30.05
2022-10-16T05:39:16.322Z,30.17
2022-10-16T05:41:43.253Z,29.90
2022-10-16T05:44:10.031Z,29.63
2022-10-16T05:46:36.350Z,30.88
2022-10-16T05:49:02.950Z,29.33
2022-10-16T05:51:29.329Z,29.15
2022-10-16T05:53:55.653Z,28.63
2022-10-16T05:56:22.025Z,30.15
2022-10-16T05:58:48.365Z,27.33
2022-10-16T06:01:17.483Z,28.00
2022-10-16T06:03:44.593Z,28.70
2022-10-16T06:06:14.160Z,29.35
2022-10-16T06:08:42.743Z,28.98
2022-10-16T06:11:11.986Z,26.77
2022-10-16T06:13:39.784Z,28.75
2022-10-16T06:16:06.781Z,29.98
2022-10-16T06:18:33.127Z,27.48
2022-10-16T06:20:59.960Z,27.95
2022-10-16T06:23:26.968Z,27.77
2022-10-16T06:25:53.269Z,28.27
2022-10-16T06:28:19.613Z,27.55
2022-10-16T06:30:46.611Z,30.60
2022-10-16T06:33:13.301Z,29.27
2022-10-16T06:35:39.716Z,30.80
2022-10-16T06:38:06.092Z,30.58
2022-10-16T06:40:32.750Z,28.35
2022-10-16T06:42:59.069Z,29.92
2022-10-16T06:45:25.373Z,29.20
2022-10-16T06:47:51.673Z,30.65
2022-10-16T06:50:18.026Z,30.30
2022-10-16T06:52:44.322Z,30.45
2022-10-16T06:55:10.670Z,28.98
2022-10-16T06:57:36.986Z,28.52
2022-10-16T07:00:04.376Z,27.98
2022-10-16T07:02:30.673Z,28.17
2022-10-16T07:04:57.910Z,29.00
2022-10-16T07:07:25.677Z,29.60
2022-10-16T07:09:52.059Z,30.42
2022-10-16T07:12:18.665Z,28.63
2022-10-16T07:14:45.032Z,28.95
2022-10-16T07:17:11.367Z,26.65
2022-10-16T07:19:37.894Z,28.10
2022-10-16T07:22:04.301Z,28.65
2022-10-16T07:24:30.806Z,28.70
2022-10-16T07:26:57.199Z,27.33
2022-10-16T07:29:23.597Z,29.75
2022-10-16T07:31:50.726Z,28.92
2022-10-16T07:34:19.850Z,31.45
2022-10-16T07:36:49.192Z,29.75
2022-10-16T07:39:15.555Z,31.27
2022-10-16T07:41:41.956Z,28.60
2022-10-16T07:44:08.945Z,30.13
2022-10-16T07:46:36.865Z,31.65
2022-10-16T07:49:04.582Z,32.00
2022-10-16T07:51:31.002Z,28.98
2022-10-16T07:53:57.399Z,29.20
2022-10-16T07:56:23.769Z,32.72
2022-10-16T07:58:51.152Z,29.27
2022-10-16T08:01:19.026Z,30.50
2022-10-16T08:03:47.210Z,31.02
2022-10-16T08:06:13.864Z,31.33
2022-10-16T08:08:40.242Z,31.88
2022-10-16T08:11:06.604Z,30.77
2022-10-16T08:13:33.259Z,31.63
2022-10-16T08:15:59.595Z,30.05
2022-10-16T08:18:26.547Z,30.13
2022-10-16T08:20:58.220Z,34.38
2022-10-16T08:23:26.746Z,34.90
2022-10-16T08:26:10.086Z,34.78
2022-10-16T08:28:37.067Z,32.20
2022-10-16T08:31:14.742Z,32.65
2022-10-16T08:33:43.052Z,33.80
2022-10-16T08:36:11.632Z,33.40
2022-10-16T08:38:38.353Z,33.53
2022-10-16T08:41:34.991Z,31.60
2022-10-16T08:44:11.890Z,35.03
2022-10-16T08:46:50.631Z,34.53
2022-10-16T08:49:17.940Z,34.28
2022-10-16T08:51:44.519Z,29.50
2022-10-16T08:54:23.788Z,30.67
2022-10-16T08:56:50.136Z,30.48
2022-10-16T08:59:17.768Z,30.33
2022-10-16T09:01:50.468Z,28.70
2022-10-16T09:04:44.325Z,24.55
2022-10-16T09:07:24.339Z,24.23
2022-10-16T09:09:55.732Z,21.08
2022-10-16T09:12:39.259Z,17.35
2022-10-16T09:15:11.491Z,17.27
2022-10-16T09:17:53.307Z,15.82
2022-10-16T09:20:38.725Z,18.83
2022-10-16T09:23:04.963Z,18.95
2022-10-16T09:25:33.499Z,19.25
2022-10-16T09:27:59.871Z,16.42
2022-10-16T09:30:30.336Z,21.08
2022-10-16T09:32:59.201Z,19.75
2022-10-16T09:35:37.494Z,17.92
2022-10-16T09:38:04.043Z,24.27
2022-10-16T09:40:36.626Z,24.10
2022-10-16T09:43:26.259Z,25.10
2022-10-16T09:46:04.660Z,24.98
2022-10-16T09:48:52.634Z,22.02
2022-10-16T09:51:28.042Z,23.08
2022-10-16T09:54:02.802Z,21.88
2022-10-16T09:56:36.434Z,25.38
2022-10-16T09:59:14.258Z,30.77
2022-10-16T10:01:42.047Z,24.63
2022-10-16T10:04:08.937Z,22.70
2022-10-16T10:06:41.361Z,26.48
2022-10-16T10:09:24.497Z,28.40
2022-10-16T10:11:59.247Z,28.15
2022-10-16T10:14:44.392Z,21.95
2022-10-16T10:17:14.625Z,21.15
2022-10-16T10:19:46.864Z,10.43
2022-10-16T10:22:27.411Z,12.05
2022-10-16T10:25:09.214Z,18.00
2022-10-16T10:28:11.811Z,11.57
2022-10-16T10:31:29.339Z,10.80
2022-10-16T10:34:20.850Z,10.88
2022-10-16T10:37:00.516Z,10.15
2022-10-16T10:39:36.864Z,10.52
2022-10-16T10:42:32.068Z,12.65
2022-10-16T10:45:24.048Z,11.57
2022-10-16T10:48:15.085Z,10.25
2022-10-16T10:50:52.431Z,6.88
2022-10-16T10:53:49.306Z,8.25
2022-10-16T10:56:25.914Z,11.77
2022-10-16T10:59:16.458Z,7.22
2022-10-16T11:01:55.634Z,6.97
2022-10-16T11:04:36.651Z,10.60
2022-10-16T11:07:06.693Z,8.73
2022-10-16T11:09:39.062Z,12.57
2022-10-16T11:12:28.698Z,11.48
2022-10-16T11:15:15.207Z,10.80
2022-10-16T11:17:48.864Z,11.57
2022-10-16T11:20:25.730Z,8.75
2022-10-16T11:23:10.047Z,6.57
2022-10-16T11:25:36.466Z,7.45
2022-10-16T11:28:14.215Z,11.15
2022-10-16T11:30:58.821Z,13.82
2022-10-16T11:33:36.021Z,11.55
2022-10-16T11:36:24.117Z,13.48
2022-10-16T11:39:02.581Z,19.55
2022-10-16T11:41:35.907Z,8.55
2022-10-16T11:44:13.836Z,9.00
2022-10-16T11:46:58.973Z,7.55
2022-10-16T11:49:33.574Z,7.25
2022-10-16T11:52:02.844Z,5.40
2022-10-16T11:54:57.192Z,10.88
2022-10-16T11:57:34.674Z,10.40
2022-10-16T12:00:11.418Z,8.32
2022-10-16T12:02:48.762Z,6.22
2022-10-16T12:05:34.059Z,7.10
2022-10-16T12:08:11.397Z,6.60
2022-10-16T12:13:32.253Z,8.50
2022-10-16T12:16:21.429Z,11.70
2022-10-16T12:18:49.682Z,10.10
2022-10-16T12:21:19.959Z,13.43
2022-10-16T12:23:55.468Z,13.77
2022-10-16T12:26:31.320Z,14.63
2022-10-16T12:29:15.716Z,14.40
2022-10-16T12:31:54.858Z,8.88
2022-10-16T12:34:38.735Z,7.00
2022-10-16T12:37:16.211Z,12.18
2022-10-16T12:39:43.196Z,12.82
2022-10-16T12:42:32.029Z,10.90
2022-10-16T12:44:58.438Z,8.00
2022-10-16T12:47:38.521Z,17.90
2022-10-16T12:50:24.881Z,17.70
2022-10-16T12:52:51.460Z,18.00
2022-10-16T12:55:20.540Z,13.88
2022-10-16T12:58:24.469Z,10.65
2022-10-16T13:01:35.241Z,14.50
2022-10-16T13:04:46.214Z,14.13
2022-10-16T13:07:26.895Z,11.63
2022-10-16T13:10:19.667Z,10.45
2022-10-16T13:13:08.781Z,8.18
2022-10-16T13:15:59.636Z,6.85
2022-10-16T13:18:58.376Z,6.32
2022-10-16T13:21:57.060Z,7.32
2022-10-16T13:24:47.842Z,6.75
2022-10-16T13:27:41.386Z,13.38
2022-10-16T13:30:18.807Z,7.60
2022-10-16T13:32:48.537Z,13.50
2022-10-16T13:35:24.135Z,13.75
2022-10-16T13:37:51.165Z,11.70
2022-10-16T13:40:22.903Z,20.52
2022-10-16T13:42:50.683Z,16.23
2022-10-16T13:45:26.352Z,16.75
2022-10-16T13:48:03.529Z,14.52
2022-10-16T13:50:30.053Z,19.30
2022-10-16T13:53:07.278Z,15.32
2022-10-16T13:55:34.278Z,13.30
2022-10-16T13:58:09.433Z,10.18
2022-10-16T14:00:36.339Z,16.20
2022-10-16T14:03:06.303Z,14.30
2022-10-16T14:05:33.095Z,17.63
2022-10-16T14:08:00.138Z,18.70
2022-10-16T14:10:31.035Z,15.60
2022-10-16T14:13:07.229Z,16.20
2022-10-16T14:15:36.019Z,18.88
2022-10-16T14:18:03.438Z,13.43
2022-10-16T14:20:33.032Z,11.85
2022-10-16T14:23:21.405Z,15.60
2022-10-16T14:25:48.105Z,12.45
2022-10-16T14:28:14.349Z,15.30
2022-10-16T14:30:54.446Z,19.92
2022-10-16T14:33:41.006Z,15.85
2022-10-16T14:36:14.732Z,11.95
2022-10-16T14:38:44.049Z,10.88
2022-10-16T14:41:10.737Z,15.43
2022-10-16T14:43:47.397Z,15.63
2022-10-16T14:48:52.306Z,10.50
2022-10-16T14:51:20.302Z,10.60
2022-10-16T14:53:47.588Z,10.57
2022-10-16T14:56:21.271Z,14.90
2022-10-16T14:58:48.185Z,16.80
2022-10-16T15:01:14.637Z,21.52
2022-10-16T15:03:41.067Z,23.15
2022-10-16T15:06:15.312Z,25.90
2022-10-16T15:08:42.571Z,32.05
2022-10-16T15:11:14.830Z,29.10
2022-10-16T15:13:41.224Z,31.48
2022-10-16T15:16:16.600Z,32.17
2022-10-16T15:18:43.245Z,31.48
2022-10-16T15:21:21.571Z,30.75
2022-10-16T15:23:50.427Z,29.45
2022-10-16T15:26:16.768Z,25.35
2022-10-16T15:28:43.156Z,22.90
2022-10-16T15:31:09.605Z,28.35
2022-10-16T15:33:39.602Z,25.65
2022-10-16T15:36:07.222Z,27.35
2022-10-16T15:38:33.525Z,25.85
2022-10-16T15:40:59.873Z,26.80
2022-10-16T15:43:26.450Z,26.00
2022-10-16T15:46:18.452Z,26.73
2022-10-16T15:48:45.001Z,27.30
2022-10-16T15:51:11.356Z,26.63
2022-10-16T15:53:37.693Z,27.30
2022-10-16T15:56:08.589Z,27.90
2022-10-16T15:58:35.070Z,29.17
2022-10-16T16:01:02.723Z,29.58
2022-10-16T16:03:30.103Z,27.08
2022-10-16T16:05:56.838Z,26.40
2022-10-16T16:08:23.516Z,26.88
2022-10-16T16:11:00.738Z,28.70
2022-10-16T16:13:27.368Z,26.40
2022-10-16T16:15:54.026Z,27.30
2022-10-16T16:18:20.474Z,28.85
2022-10-16T16:20:46.953Z,27.85
2022-10-16T16:23:13.285Z,28.20
2022-10-16T16:25:39.623Z,34.38
2022-10-16T16:28:07.431Z,33.53
2022-10-16T16:30:34.052Z,33.50
2022-10-16T16:33:00.412Z,33.78
2022-10-16T16:35:26.736Z,36.10
2022-10-16T16:37:53.084Z,32.78
2022-10-16T16:40:19.389Z,32.13
2022-10-16T16:42:49.064Z,37.25
2022-10-16T16:45:15.498Z,38.03
2022-10-16T16:47:41.954Z,37.38
2022-10-16T16:50:08.583Z,40.85
2022-10-16T16:52:35.885Z,31.38
2022-10-16T16:55:02.778Z,32.05
2022-10-16T16:57:29.489Z,30.13
2022-10-16T16:59:56.085Z,28.70
2022-10-16T17:02:22.534Z,26.92
2022-10-16T17:04:48.875Z,31.55
2022-10-16T17:07:15.181Z,30.27
2022-10-16T17:09:41.522Z,35.55
2022-10-16T17:12:07.855Z,34.72
2022-10-16T17:14:34.196Z,33.40
2022-10-16T17:17:00.552Z,37.92
2022-10-16T17:19:26.915Z,36.75
2022-10-16T17:21:53.506Z,37.22
2022-10-16T17:24:21.041Z,40.28
2022-10-16T17:26:49.107Z,36.75
2022-10-16T17:29:18.047Z,42.03
2022-10-16T17:31:44.966Z,40.17
2022-10-16T17:34:12.814Z,42.00
2022-10-16T17:36:43.799Z,35.92
2022-10-16T17:39:11.912Z,36.00
2022-10-16T17:41:38.322Z,32.88
2022-10-16T17:44:06.322Z,30.15
2022-10-16T17:46:36.891Z,37.67
2022-10-16T17:49:06.741Z,41.50
2022-10-16T17:51:33.292Z,42.15
2022-10-16T17:54:02.007Z,39.03
2022-10-16T17:56:29.976Z,43.67
2022-10-16T17:58:59.754Z,42.67
2022-10-16T18:01:30.099Z,45.50
2022-10-16T18:04:02.564Z,49.40
2022-10-16T18:06:29.291Z,32.20
2022-10-16T18:08:57.777Z,28.23
2022-10-16T18:11:25.298Z,24.92
2022-10-16T18:13:53.390Z,29.90
2022-10-16T18:16:20.230Z,27.88
2022-10-16T18:18:46.971Z,26.17
2022-10-16T18:21:15.854Z,27.85
2022-10-16T18:23:43.820Z,25.60
2022-10-16T18:26:14.662Z,24.20
2022-10-16T18:28:41.520Z,28.15
2022-10-16T18:31:11.825Z,28.58
2022-10-16T18:33:39.151Z,29.90
2022-10-16T18:36:08.272Z,32.95
2022-10-16T18:38:36.019Z,36.90
2022-10-16T18:41:04.530Z,40.40
2022-10-16T18:43:32.546Z,61.20
2022-10-16T18:46:21.772Z,54.97
2022-10-16T18:48:49.105Z,58.95
2022-10-16T18:51:20.041Z,58.70
2022-10-16T18:53:48.921Z,56.85
2022-10-16T18:56:17.073Z,64.00
2022-10-16T18:58:45.314Z,58.10
2022-10-16T19:01:16.421Z,60.53
2022-10-16T19:03:49.409Z,64.50
2022-10-16T19:06:16.811Z,71.50
2022-10-16T19:08:43.637Z,76.72
2022-10-16T19:11:15.870Z,81.65
2022-10-16T19:13:43.416Z,86.63
2022-10-16T19:16:20.255Z,84.32
2022-10-16T19:18:48.689Z,79.50
2022-10-16T19:21:16.093Z,83.82
2022-10-16T19:23:42.969Z,81.07
2022-10-16T19:26:15.361Z,76.50
2022-10-16T19:28:42.697Z,68.93
2022-10-16T19:31:18.450Z,71.43
2022-10-16T19:33:45.809Z,62.15
2022-10-16T19:36:17.167Z,61.78
2022-10-16T19:38:44.992Z,59.90
2022-10-16T19:41:17.615Z,62.80
2022-10-16T19:43:44.804Z,61.60
2022-10-16T19:46:17.052Z,65.07
2022-10-16T19:48:44.414Z,65.05
2022-10-16T19:51:13.107Z,68.97
2022-10-16T19:53:39.418Z,68.40
2022-10-16T19:56:17.304Z,64.18
2022-10-16T19:58:44.734Z,61.72
2022-10-16T20:01:12.382Z,66.72
2022-10-16T20:03:41.553Z,73.32
2022-10-16T20:06:08.989Z,73.22
2022-10-16T20:08:37.351Z,70.47
2022-10-16T20:11:04.849Z,70.93
2022-10-16T20:13:31.891Z,68.35
2022-10-16T20:15:58.582Z,69.45
2022-10-16T20:18:24.976Z,72.25
2022-10-16T20:20:52.499Z,66.82
2022-10-16T20:23:19.564Z,64.45
2022-10-16T20:25:46.405Z,65.22
2022-10-16T20:28:15.682Z,66.43
2022-10-16T20:30:44.220Z,62.45
2022-10-16T20:33:11.463Z,61.17
2022-10-16T20:35:42.784Z,62.30
2022-10-16T20:38:10.057Z,63.13
2022-10-16T20:40:38.411Z,69.10
2022-10-16T20:43:05.678Z,74.53
2022-10-16T20:45:32.081Z,75.95
2022-10-16T20:47:58.561Z,74.75
2022-10-16T20:50:29.098Z,76.95
2022-10-16T20:52:55.852Z,80.82
2022-10-16T20:55:22.187Z,77.82
2022-10-16T20:57:48.546Z,79.03
2022-10-16T21:00:15.266Z,74.70
2022-10-16T21:02:41.677Z,80.00
2022-10-16T21:05:08.260Z,73.88
2022-10-16T21:07:34.613Z,72.75
2022-10-16T21:10:00.931Z,71.82
2022-10-16T21:12:27.885Z,71.70
2022-10-16T21:15:13.526Z,68.82
2022-10-16T21:17:40.599Z,73.88
2022-10-16T21:20:07.269Z,77.45
2022-10-16T21:22:33.619Z,78.82
2022-10-16T21:24:59.995Z,74.22
2022-10-16T21:27:26.308Z,82.65
2022-10-16T21:29:54.153Z,80.03
2022-10-16T21:32:23.409Z,75.03
2022-10-16T21:34:49.844Z,76.82
2022-10-16T21:37:16.160Z,75.50
2022-10-16T21:39:42.489Z,70.95
2022-10-16T21:42:08.858Z,72.03
2022-10-16T21:44:35.351Z,71.95
2022-10-16T21:47:01.693Z,71.88
2022-10-16T21:49:28.092Z,72.55
2022-10-16T21:51:54.392Z,70.25
2022-10-16T21:54:22.881Z,73.90
2022-10-16T21:56:49.587Z,78.45
2022-10-16T21:59:16.027Z,72.40
2022-10-16T22:01:43.285Z,73.43
2022-10-16T22:04:12.095Z,70.47
2022-10-16T22:06:39.054Z,69.28
2022-10-16T22:09:05.854Z,68.65
2022-10-16T22:11:37.256Z,69.60
2022-10-16T22:14:05.617Z,72.30
2022-10-16T22:16:32.295Z,73.13
2022-10-16T22:19:00.901Z,73.75
2022-10-16T22:21:28.294Z,71.95
2022-10-16T22:23:55.294Z,71.00
2022-10-16T22:26:21.963Z,77.13
2022-10-16T22:28:48.446Z,72.00
2022-10-16T22:31:15.601Z,70.55
2022-10-16T22:33:42.626Z,73.85
2022-10-16T22:36:12.226Z,69.78
2022-10-16T22:38:38.873Z,73.60
2022-10-16T22:41:08.197Z,71.90
2022-10-16T22:43:40.082Z,72.53
2022-10-16T22:46:08.746Z,66.43
2022-10-16T22:48:36.026Z,72.60
2022-10-16T22:51:03.792Z,73.10
2022-10-16T22:53:30.602Z,73.90
2022-10-16T22:55:57.023Z,80.80
2022-10-16T22:58:23.353Z,78.72
2022-10-16T23:00:50.168Z,74.38
2022-10-16T23:03:17.182Z,76.32
2022-10-16T23:05:43.701Z,71.75
2022-10-16T23:08:10.845Z,75.40
2022-10-16T23:10:43.473Z,69.68
2022-10-16T23:13:10.245Z,66.63
2022-10-16T23:15:40.638Z,71.47
2022-10-16T23:18:07.559Z,70.18
2022-10-16T23:20:33.889Z,74.00
2022-10-16T23:23:00.250Z,69.40
2022-10-16T23:25:27.114Z,66.70
2022-10-16T23:27:55.143Z,69.22
2022-10-16T23:30:21.563Z,66.40
2022-10-16T23:32:48.336Z,75.32
2022-10-16T23:35:15.217Z,69.15
2022-10-16T23:37:41.555Z,70.03
2022-10-16T23:40:08.256Z,68.63
2022-10-16T23:42:34.660Z,69.47
2022-10-16T23:45:00.980Z,69.63
2022-10-16T23:47:27.731Z,74.50
2022-10-16T23:49:54.218Z,68.32
2022-10-16T23:52:20.541Z,72.05
2022-10-16T23:54:46.875Z,71.32
2022-10-16T23:57:13.229Z,74.28
2022-10-16T23:59:39.567Z,74.40
